createdAt,value
2022-08-28T00:02:03.568Z,160654.84
2022-08-28T00:04:31.039Z,160649.47
2022-08-28T00:06:58.772Z,160641.44
2022-08-28T00:09:26.317Z,160628.06
2022-08-28T00:11:54.534Z,160621.34
2022-08-28T00:14:23.444Z,160616.03
2022-08-28T00:16:52.601Z,160613.34
2022-08-28T00:19:20.665Z,160598.59
2022-08-28T00:21:48.100Z,160591.91
2022-08-28T00:24:15.482Z,160581.22
2022-08-28T00:27:01.695Z,160579.84
2022-08-28T00:29:29.575Z,160561.13
2022-08-28T00:31:56.916Z,160575.88
2022-08-28T00:34:28.483Z,160563.78
2022-08-28T00:37:01.515Z,160566.50
2022-08-28T00:39:29.031Z,160561.13
2022-08-28T00:41:58.012Z,160559.81
2022-08-28T00:44:27.752Z,160550.41
2022-08-28T00:46:57.014Z,160547.75
2022-08-28T00:49:26.849Z,160543.72
2022-08-28T00:52:11.897Z,160538.41
2022-08-28T00:54:56.826Z,160530.31
2022-08-28T00:57:34.139Z,160523.63
2022-08-28T01:00:01.745Z,160518.31
2022-08-28T01:02:29.742Z,160520.97
2022-08-28T01:04:57.030Z,160522.28
2022-08-28T01:07:24.213Z,160527.66
2022-08-28T01:09:54.164Z,160529.00
2022-08-28T01:12:25.664Z,160535.69
2022-08-28T01:14:57.938Z,160535.69
2022-08-28T01:17:26.643Z,160542.38
2022-08-28T01:19:58.475Z,160541.06
2022-08-28T01:22:59.630Z,160529.00
2022-08-28T01:25:28.619Z,160534.34
2022-08-28T01:27:56.500Z,160531.69
2022-08-28T01:30:24.609Z,160520.97
2022-08-28T01:32:54.897Z,160527.66
2022-08-28T01:35:26.434Z,160525.00
2022-08-28T01:37:55.808Z,160523.63
2022-08-28T01:40:37.962Z,160518.31
2022-08-28T01:43:20.902Z,160516.94
2022-08-28T01:45:55.940Z,160514.28
2022-08-28T01:48:25.708Z,160510.28
2022-08-28T01:50:53.835Z,160507.56
2022-08-28T01:53:24.984Z,160515.59
2022-08-28T01:55:54.265Z,160520.97
2022-08-28T01:58:22.819Z,160516.94
2022-08-28T02:00:53.710Z,160515.59
2022-08-28T02:03:22.853Z,160519.63
2022-08-28T02:05:50.694Z,160523.63
2022-08-28T02:08:18.439Z,160519.63
2022-08-28T02:10:46.322Z,160515.59
2022-08-28T02:13:13.832Z,160502.22
2022-08-28T02:15:42.908Z,160504.91
2022-08-28T02:18:10.840Z,160512.94
2022-08-28T02:20:38.378Z,160499.53
2022-08-28T02:23:06.858Z,160504.91
2022-08-28T02:25:34.282Z,160504.91
2022-08-28T02:28:01.529Z,160498.22
2022-08-28T02:30:28.785Z,160500.88
2022-08-28T02:32:56.547Z,160499.53
2022-08-28T02:35:24.353Z,160499.53
2022-08-28T02:37:51.959Z,160492.84
2022-08-28T02:40:23.908Z,160492.84
2022-08-28T02:42:52.290Z,160487.50
2022-08-28T02:45:20.615Z,160480.78
2022-08-28T02:47:48.759Z,160475.47
2022-08-28T02:50:17.759Z,160464.75
2022-08-28T02:52:46.489Z,160460.75
2022-08-28T02:55:15.925Z,160437.97
2022-08-28T02:57:43.553Z,160456.72
2022-08-28T03:00:13.809Z,160448.69
2022-08-28T03:02:42.248Z,160427.28
2022-08-28T03:05:10.716Z,160419.25
2022-08-28T03:07:38.043Z,160399.19
2022-08-28T03:10:07.448Z,160403.16
2022-08-28T03:12:35.031Z,160399.19
2022-08-28T03:15:02.700Z,160408.53
2022-08-28T03:17:30.649Z,160409.88
2022-08-28T03:19:57.924Z,160396.47
2022-08-28T03:22:44.172Z,160384.47
2022-08-28T03:25:12.533Z,160376.41
2022-08-28T03:27:39.906Z,160381.75
2022-08-28T03:30:08.210Z,160383.13
2022-08-28T03:32:36.003Z,160400.50
2022-08-28T03:35:05.461Z,160396.47
2022-08-28T03:37:32.620Z,160400.50
2022-08-28T03:40:00.732Z,160393.81
2022-08-28T03:42:27.995Z,160407.19
2022-08-28T03:44:55.396Z,160401.84
2022-08-28T03:47:24.763Z,160397.84
2022-08-28T03:49:58.633Z,160389.78
2022-08-28T03:52:26.339Z,160371.03
2022-08-28T03:54:53.770Z,160373.69
2022-08-28T03:57:22.938Z,160375.00
2022-08-28T03:59:52.638Z,160371.03
2022-08-28T04:02:20.775Z,160367.00
2022-08-28T04:04:49.363Z,160350.94
2022-08-28T04:07:18.218Z,160352.28
2022-08-28T04:09:45.877Z,160344.25
2022-08-28T04:12:14.490Z,160352.28
2022-08-28T04:14:42.118Z,160361.69
2022-08-28T04:17:10.250Z,160373.69
2022-08-28T04:19:38.166Z,160388.44
2022-08-28T04:22:05.825Z,160397.84
2022-08-28T04:24:33.303Z,160428.63
2022-08-28T04:27:00.465Z,160454.06
2022-08-28T04:29:29.899Z,160475.47
2022-08-28T04:31:58.321Z,160482.16
2022-08-28T04:34:25.703Z,160510.28
2022-08-28T04:36:54.191Z,160545.03
2022-08-28T04:39:21.638Z,160590.59
2022-08-28T04:41:50.301Z,160641.44
2022-08-28T04:44:17.931Z,160697.75
2022-08-28T04:46:45.120Z,160767.41
2022-08-28T04:49:16.238Z,160849.06
2022-08-28T04:51:43.839Z,160921.47
2022-08-28T04:54:14.487Z,161012.63
2022-08-28T04:56:41.703Z,161095.69
2022-08-28T04:59:10.375Z,161196.28
2022-08-28T05:01:38.043Z,161295.56
2022-08-28T05:04:05.290Z,161389.44
2022-08-28T05:06:33.658Z,161457.81
2022-08-28T05:09:03.546Z,161557.19
2022-08-28T05:11:34.147Z,161672.59
2022-08-28T05:14:05.050Z,161777.34
2022-08-28T05:16:34.814Z,161864.63
2022-08-28T05:19:03.335Z,161972.09
2022-08-28T05:21:30.795Z,162041.94
2022-08-28T05:23:59.225Z,162145.38
2022-08-28T05:26:28.244Z,162243.53
2022-08-28T05:28:57.173Z,162321.47
2022-08-28T05:31:25.254Z,162359.13
2022-08-28T05:33:53.590Z,162357.75
2022-08-28T05:36:25.907Z,162368.53
2022-08-28T05:39:00.363Z,162371.22
2022-08-28T05:41:33.008Z,162317.47
2022-08-28T05:44:03.979Z,162324.19
2022-08-28T05:46:31.845Z,162380.66
2022-08-28T05:49:00.493Z,162398.16
2022-08-28T05:51:28.761Z,162430.44
2022-08-28T05:53:57.929Z,162468.06
2022-08-28T05:56:32.833Z,162567.56
2022-08-28T05:59:02.343Z,162652.34
2022-08-28T06:01:32.232Z,162735.78
2022-08-28T06:04:01.981Z,162843.44
2022-08-28T06:06:31.679Z,162909.38
2022-08-28T06:09:01.453Z,162986.16
2022-08-28T06:11:30.764Z,162980.72
2022-08-28T06:14:02.439Z,163018.44
2022-08-28T06:16:32.205Z,163062.88
2022-08-28T06:19:00.830Z,163058.81
2022-08-28T06:21:29.185Z,163087.09
2022-08-28T06:23:56.451Z,163159.78
2022-08-28T06:26:24.019Z,163208.31
2022-08-28T06:28:53.309Z,163235.28
2022-08-28T06:31:24.731Z,163256.81
2022-08-28T06:33:55.050Z,163258.16
2022-08-28T06:36:23.262Z,163303.97
2022-08-28T06:38:51.116Z,163351.13
2022-08-28T06:41:19.873Z,163294.50
2022-08-28T06:43:47.177Z,163361.94
2022-08-28T06:46:14.473Z,163427.94
2022-08-28T06:48:42.221Z,163484.50
2022-08-28T06:51:11.953Z,163553.28
2022-08-28T06:53:41.061Z,163667.84
2022-08-28T06:56:25.522Z,163709.69
2022-08-28T06:58:56.753Z,163764.91
2022-08-28T07:01:29.396Z,163845.84
2022-08-28T07:04:00.118Z,163759.56
2022-08-28T07:06:28.732Z,163843.09
2022-08-28T07:08:55.980Z,163841.75
2022-08-28T07:11:26.857Z,163833.69
2022-08-28T07:13:55.393Z,163831.00
2022-08-28T07:16:29.640Z,163755.50
2022-08-28T07:18:57.573Z,163808.03
2022-08-28T07:21:25.704Z,163844.50
2022-08-28T07:23:53.506Z,163862.00
2022-08-28T07:26:23.723Z,163880.94
2022-08-28T07:28:53.503Z,163880.94
2022-08-28T07:31:40.201Z,163867.41
2022-08-28T07:34:08.742Z,163806.72
2022-08-28T07:36:36.011Z,163875.53
2022-08-28T07:39:05.369Z,163959.16
2022-08-28T07:41:35.644Z,164027.91
2022-08-28T07:44:21.853Z,164071.09
2022-08-28T07:46:54.595Z,164152.06
2022-08-28T07:49:22.314Z,164145.31
2022-08-28T07:51:49.953Z,164188.50
2022-08-28T07:54:23.111Z,164270.81
2022-08-28T07:56:50.889Z,164341.00
2022-08-28T07:59:19.277Z,164262.72
2022-08-28T08:01:48.876Z,164262.72
2022-08-28T08:04:17.487Z,164295.13
2022-08-28T08:06:45.328Z,164318.06
2022-08-28T08:09:16.241Z,164316.72
2022-08-28T08:11:43.812Z,164304.56
2022-08-28T08:14:12.112Z,164364.03
2022-08-28T08:16:42.608Z,164431.50
2022-08-28T08:19:14.091Z,164465.25
2022-08-28T08:21:53.223Z,164516.59
2022-08-28T08:24:25.935Z,164580.03
2022-08-28T08:27:00.080Z,164558.44
2022-08-28T08:29:31.577Z,164496.28
2022-08-28T08:32:05.549Z,164534.09
2022-08-28T08:34:39.898Z,164631.31
2022-08-28T08:37:07.982Z,164669.16
2022-08-28T08:39:36.192Z,164688.09
2022-08-28T08:42:21.493Z,164670.56
2022-08-28T08:44:52.193Z,164712.38
2022-08-28T08:47:49.330Z,164725.88
2022-08-28T08:50:21.005Z,164750.22
2022-08-28T08:52:55.613Z,164804.22
2022-08-28T08:55:31.749Z,164832.63
2022-08-28T08:58:15.883Z,164786.69
2022-08-28T09:01:04.347Z,164788.03
2022-08-28T09:03:56.342Z,164790.72
2022-08-28T09:06:33.510Z,164750.22
2022-08-28T09:09:04.040Z,164774.50
2022-08-28T09:11:35.677Z,164782.59
2022-08-28T09:14:17.060Z,164765.06
2022-08-28T09:16:48.396Z,164752.91
2022-08-28T09:19:20.459Z,164719.13
2022-08-28T09:21:49.550Z,164643.50
2022-08-28T09:24:29.041Z,164688.09
2022-08-28T09:26:59.527Z,164688.09
2022-08-28T09:29:43.508Z,164630.00
2022-08-28T09:32:25.264Z,164571.94
2022-08-28T09:35:19.278Z,164585.44
2022-08-28T09:37:46.667Z,164600.28
2022-08-28T09:40:48.475Z,164551.69
2022-08-28T09:43:27.558Z,164585.44
2022-08-28T09:46:02.802Z,164563.84
2022-08-28T09:48:44.450Z,164577.31
2022-08-28T09:51:29.476Z,164625.91
2022-08-28T09:54:05.296Z,164621.88
2022-08-28T09:56:40.131Z,164650.25
2022-08-28T09:59:13.171Z,164652.94
2022-08-28T10:01:51.129Z,164639.44
2022-08-28T10:04:24.116Z,164667.81
2022-08-28T10:06:55.407Z,164686.75
2022-08-28T10:09:34.625Z,164712.38
2022-08-28T10:12:11.493Z,164747.50
2022-08-28T10:14:49.090Z,164736.72
2022-08-28T10:17:55.646Z,164701.59
2022-08-28T10:21:00.314Z,164678.66
2022-08-28T10:23:46.394Z,164589.47
2022-08-28T10:26:32.789Z,164580.03
2022-08-28T10:29:30.309Z,164588.13
2022-08-28T10:32:21.638Z,164632.66
2022-08-28T10:35:03.580Z,164625.91
2022-08-28T10:37:37.015Z,164658.34
2022-08-28T10:40:11.784Z,164652.94
2022-08-28T10:42:44.609Z,164658.34
2022-08-28T10:45:14.782Z,164696.19
2022-08-28T10:47:46.443Z,164690.78
2022-08-28T10:50:26.699Z,164724.56
2022-08-28T10:52:58.750Z,164721.88
2022-08-28T10:55:34.791Z,164721.88
2022-08-28T10:58:24.556Z,164713.78
2022-08-28T11:01:05.428Z,164709.69
2022-08-28T11:03:40.714Z,164708.34
2022-08-28T11:06:34.020Z,164711.03
2022-08-28T11:09:24.874Z,164755.59
2022-08-28T11:12:01.735Z,164775.84
2022-08-28T11:14:47.881Z,164824.53
2022-08-28T11:17:21.906Z,164836.72
2022-08-28T11:20:16.071Z,164819.13
2022-08-28T11:22:48.997Z,164777.19
2022-08-28T11:25:26.706Z,164767.75
2022-08-28T11:28:22.503Z,164719.13
2022-08-28T11:31:19.111Z,164650.25
2022-08-28T11:33:59.285Z,164655.63
2022-08-28T11:36:28.267Z,164624.56
2022-08-28T11:38:55.666Z,164635.41
2022-08-28T11:41:30.780Z,164650.25
2022-08-28T11:44:13.018Z,164615.16
2022-08-28T11:46:45.133Z,164601.63
2022-08-28T11:49:27.398Z,164581.38
2022-08-28T11:52:21.648Z,164589.47
2022-08-28T11:55:14.523Z,164636.75
2022-08-28T12:00:51.590Z,164717.78
2022-08-28T12:03:35.845Z,164758.31
2022-08-28T12:06:03.774Z,164797.47
2022-08-28T12:08:59.198Z,164831.28
2022-08-28T12:11:41.949Z,164881.28
2022-08-28T12:14:29.650Z,164856.97
2022-08-28T12:17:00.160Z,164850.22
2022-08-28T12:19:56.851Z,164881.28
2022-08-28T12:22:26.725Z,164896.13
2022-08-28T12:24:59.895Z,164908.28
2022-08-28T12:27:28.910Z,164916.38
2022-08-28T12:29:58.816Z,164925.84
2022-08-28T12:32:26.220Z,164920.47
2022-08-28T12:34:53.401Z,164910.97
2022-08-28T12:37:20.929Z,164870.50
2022-08-28T12:39:48.555Z,164777.19
2022-08-28T12:42:20.205Z,164742.13
2022-08-28T12:44:47.966Z,164697.53
2022-08-28T12:47:18.971Z,164635.41
2022-08-28T12:49:47.157Z,164542.25
2022-08-28T12:52:18.811Z,164542.25
2022-08-28T12:54:47.529Z,164516.59
2022-08-28T12:57:23.946Z,164498.94
2022-08-28T12:59:54.125Z,164492.25
2022-08-28T13:02:34.561Z,164401.81
2022-08-28T13:05:11.851Z,164435.56
2022-08-28T13:07:51.520Z,164415.31
2022-08-28T13:10:38.606Z,164342.34
2022-08-28T13:13:19.092Z,164331.56
2022-08-28T13:15:57.171Z,164320.75
2022-08-28T13:18:39.004Z,164301.88
2022-08-28T13:21:33.213Z,164245.22
2022-08-28T13:24:26.296Z,164233.06
2022-08-28T13:27:14.333Z,164188.50
2022-08-28T13:30:00.915Z,164212.81
2022-08-28T13:32:30.648Z,164219.56
2022-08-28T13:35:10.548Z,164238.47
2022-08-28T13:37:50.195Z,164238.47
2022-08-28T13:40:53.527Z,164296.47
2022-08-28T13:43:11.049Z,164250.63
2022-08-28T13:45:43.094Z,164257.38
2022-08-28T13:48:16.634Z,164253.31
2022-08-28T13:50:47.657Z,164280.31
2022-08-28T13:53:18.028Z,164291.06
2022-08-28T13:55:47.210Z,164335.63
2022-08-28T13:58:14.820Z,164328.88
2022-08-28T14:00:46.591Z,164349.09
2022-08-28T14:03:32.944Z,164332.91
2022-08-28T14:06:00.727Z,164284.31
2022-08-28T14:08:28.309Z,164242.50
2022-08-28T14:10:55.663Z,164179.06
2022-08-28T14:13:26.840Z,164100.81
2022-08-28T14:15:56.145Z,164137.25
2022-08-28T14:18:25.830Z,164196.63
2022-08-28T14:20:53.229Z,164207.44
2022-08-28T14:23:20.635Z,164227.66
2022-08-28T14:25:49.222Z,164243.88
2022-08-28T14:28:17.303Z,164234.41
2022-08-28T14:30:49.547Z,164273.56
2022-08-28T14:33:20.543Z,164118.34
2022-08-28T14:35:49.383Z,163878.22
2022-08-28T14:38:17.359Z,163662.44
2022-08-28T14:40:45.500Z,163573.47
2022-08-28T14:43:14.066Z,163534.41
2022-08-28T14:45:46.635Z,163487.19
2022-08-28T14:48:15.086Z,163462.97
2022-08-28T14:50:44.091Z,163460.28
2022-08-28T14:53:13.993Z,163452.16
2022-08-28T14:55:45.818Z,163453.53
2022-08-28T14:58:14.798Z,163461.63
2022-08-28T15:00:49.035Z,163453.53
2022-08-28T15:03:18.730Z,163458.91
2022-08-28T15:05:47.012Z,163461.63
2022-08-28T15:08:17.128Z,163472.38
2022-08-28T15:10:45.018Z,163489.91
2022-08-28T15:13:13.081Z,163524.94
2022-08-28T15:15:43.297Z,163585.63
2022-08-28T15:18:11.573Z,163617.97
2022-08-28T15:20:46.566Z,163600.44
2022-08-28T15:23:15.345Z,163581.59
2022-08-28T15:25:43.209Z,163604.50
2022-08-28T15:28:10.973Z,163636.81
2022-08-28T15:30:39.440Z,163665.13
2022-08-28T15:33:09.350Z,163685.34
2022-08-28T15:35:37.356Z,163665.13
2022-08-28T15:38:05.779Z,163673.25
2022-08-28T15:40:52.572Z,163685.34
2022-08-28T15:43:20.855Z,163678.59
2022-08-28T15:45:48.438Z,163653.03
2022-08-28T15:48:16.241Z,163643.56
2022-08-28T15:50:44.948Z,163607.16
2022-08-28T15:53:12.997Z,163586.94
2022-08-28T15:55:40.869Z,163564.06
2022-08-28T15:58:08.905Z,163551.91
2022-08-28T16:00:42.756Z,163529.00
2022-08-28T16:03:10.799Z,163522.22
2022-08-28T16:05:39.685Z,163491.25
2022-08-28T16:08:10.602Z,163429.25
2022-08-28T16:10:38.883Z,163386.16
2022-08-28T16:13:08.300Z,163361.94
2022-08-28T16:15:37.104Z,163293.16
2022-08-28T16:18:09.311Z,163294.50
2022-08-28T16:20:38.089Z,163294.50
2022-08-28T16:23:09.273Z,163255.47
2022-08-28T16:25:41.168Z,163215.06
2022-08-28T16:28:13.566Z,163198.91
2022-08-28T16:30:43.851Z,163170.63
2022-08-28T16:33:16.747Z,163155.78
2022-08-28T16:35:56.097Z,163132.91
2022-08-28T16:38:28.304Z,163151.72
2022-08-28T16:40:55.754Z,163127.50
2022-08-28T16:43:23.281Z,163108.63
2022-08-28T16:45:51.276Z,163084.44
2022-08-28T16:48:19.172Z,163068.25
2022-08-28T16:50:46.717Z,163050.75
2022-08-28T16:53:14.139Z,163046.69
2022-08-28T16:55:47.816Z,163019.81
2022-08-28T16:58:17.077Z,163018.44
2022-08-28T17:00:54.833Z,162988.81
2022-08-28T17:03:26.513Z,162965.91
2022-08-28T17:05:56.457Z,162938.97
2022-08-28T17:08:24.010Z,162933.63
2022-08-28T17:10:51.898Z,162925.50
2022-08-28T17:13:19.261Z,162912.03
2022-08-28T17:15:46.603Z,162928.25
2022-08-28T17:18:14.429Z,162891.91
2022-08-28T17:21:00.483Z,162893.25
2022-08-28T17:23:28.250Z,162864.97
2022-08-28T17:25:56.103Z,162850.19
2022-08-28T17:28:23.796Z,162840.72
2022-08-28T17:30:51.469Z,162816.53
2022-08-28T17:33:18.856Z,162813.88
2022-08-28T17:35:46.309Z,162790.91
2022-08-28T17:38:18.028Z,162755.97
2022-08-28T17:40:45.408Z,162762.63
2022-08-28T17:43:12.829Z,162785.56
2022-08-28T17:45:40.510Z,162820.59
2022-08-28T17:48:08.444Z,162823.25
2022-08-28T17:50:35.777Z,162792.34
2022-08-28T17:53:03.704Z,162774.75
2022-08-28T17:55:31.118Z,162759.97
2022-08-28T17:57:59.099Z,162708.84
2022-08-28T18:00:26.647Z,162676.56
2022-08-28T18:02:54.807Z,162626.78
2022-08-28T18:05:22.337Z,162594.53
2022-08-28T18:07:50.189Z,162542.00
2022-08-28T18:10:17.691Z,162511.09
2022-08-28T18:12:46.346Z,162484.19
2022-08-28T18:15:15.134Z,162449.22
2022-08-28T18:17:44.152Z,162437.16
2022-08-28T18:20:12.491Z,162376.59
2022-08-28T18:22:40.217Z,162375.25
2022-08-28T18:25:08.284Z,162355.09
2022-08-28T18:27:36.758Z,162352.41
2022-08-28T18:30:04.897Z,162317.47
2022-08-28T18:32:32.558Z,162297.28
2022-08-28T18:35:00.017Z,162278.47
2022-08-28T18:37:27.703Z,162243.53
2022-08-28T18:39:55.479Z,162228.75
2022-08-28T18:42:23.831Z,162185.75
2022-08-28T18:44:51.642Z,162184.41
2022-08-28T18:47:19.212Z,162169.59
2022-08-28T18:49:46.840Z,162160.19
2022-08-28T18:52:14.665Z,162148.09
2022-08-28T18:54:42.589Z,162141.34
2022-08-28T18:57:11.714Z,162140.03
2022-08-28T18:59:39.581Z,162119.88
2022-08-28T19:02:07.808Z,162110.47
2022-08-28T19:04:36.652Z,162091.66
2022-08-28T19:07:05.715Z,162106.44
2022-08-28T19:09:34.898Z,162110.47
2022-08-28T19:12:02.733Z,162090.31
2022-08-28T19:14:30.915Z,162098.38
2022-08-28T19:16:58.560Z,162087.59
2022-08-28T19:19:26.488Z,162095.66
2022-08-28T19:21:54.643Z,162089.00
2022-08-28T19:24:22.531Z,162090.31
2022-08-28T19:26:49.874Z,162094.31
2022-08-28T19:29:17.758Z,162109.09
2022-08-28T19:31:45.293Z,162101.03
2022-08-28T19:34:13.237Z,162099.72
2022-08-28T19:36:42.049Z,162068.81
2022-08-28T19:39:09.525Z,162092.97
2022-08-28T19:41:37.628Z,162087.59
2022-08-28T19:44:06.197Z,162090.31
2022-08-28T19:46:36.292Z,162080.88
2022-08-28T19:49:05.091Z,162089.00
2022-08-28T19:51:34.460Z,162086.28
2022-08-28T19:54:03.883Z,162086.28
2022-08-28T19:56:33.401Z,162058.06
2022-08-28T19:59:03.197Z,162060.78
2022-08-28T20:01:33.271Z,162048.66
2022-08-28T20:04:00.731Z,162052.66
2022-08-28T20:06:31.671Z,162064.78
2022-08-28T20:08:59.602Z,162050.00
2022-08-28T20:11:30.403Z,162058.06
2022-08-28T20:14:04.585Z,162072.81
2022-08-28T20:16:35.230Z,162078.22
2022-08-28T20:19:04.062Z,162062.09
2022-08-28T20:21:37.850Z,162060.78
2022-08-28T20:24:13.317Z,162054.06
2022-08-28T20:26:40.753Z,162043.28
2022-08-28T20:29:09.071Z,162054.06
2022-08-28T20:31:43.709Z,162054.06
2022-08-28T20:34:12.687Z,162058.06
2022-08-28T20:36:40.451Z,162064.78
2022-08-28T20:39:09.397Z,162070.16
2022-08-28T20:41:39.008Z,162072.81
2022-08-28T20:44:07.966Z,162076.88
2022-08-28T20:46:43.551Z,162064.78
2022-08-28T20:49:12.328Z,162075.53
2022-08-28T20:51:53.248Z,162066.09
2022-08-28T20:54:26.922Z,162040.63
2022-08-28T20:56:55.094Z,162040.63
2022-08-28T20:59:22.521Z,162047.34
2022-08-28T21:01:51.338Z,162052.66
2022-08-28T21:04:18.874Z,162048.66
2022-08-28T21:06:46.962Z,162059.38
2022-08-28T21:09:15.239Z,162047.34
2022-08-28T21:11:43.819Z,162032.56
2022-08-28T21:14:12.044Z,162043.28
2022-08-28T21:16:40.448Z,162039.28
2022-08-28T21:19:16.691Z,162036.56
2022-08-28T21:21:45.695Z,162035.22
2022-08-28T21:24:15.289Z,162032.56
2022-08-28T21:26:44.701Z,162027.19
2022-08-28T21:29:14.112Z,162017.75
2022-08-28T21:31:43.166Z,162002.97
2022-08-28T21:34:11.904Z,161993.59
2022-08-28T21:36:48.106Z,161972.09
2022-08-28T21:39:20.863Z,161945.16
2022-08-28T21:41:50.075Z,161937.13
2022-08-28T21:44:18.335Z,161916.97
2022-08-28T21:46:45.857Z,161898.19
2022-08-28T21:49:13.525Z,161908.91
2022-08-28T21:51:40.996Z,161907.59
2022-08-28T21:54:08.836Z,161907.59
2022-08-28T21:56:36.456Z,161912.97
2022-08-28T21:59:04.325Z,161883.44
2022-08-28T22:01:31.630Z,161891.47
2022-08-28T22:03:59.311Z,161892.81
2022-08-28T22:06:27.224Z,161894.16
2022-08-28T22:08:55.672Z,161863.28
2022-08-28T22:11:25.207Z,161851.19
2022-08-28T22:13:54.456Z,161829.69
2022-08-28T22:16:22.051Z,161844.47
2022-08-28T22:18:50.144Z,161845.81
2022-08-28T22:21:43.761Z,161845.81
2022-08-28T22:24:12.188Z,161837.75
2022-08-28T22:26:39.851Z,161808.22
2022-08-28T22:29:08.102Z,161812.28
2022-08-28T22:31:36.695Z,161792.13
2022-08-28T22:34:06.987Z,161747.78
2022-08-28T22:36:34.361Z,161716.88
2022-08-28T22:39:01.783Z,161706.16
2022-08-28T22:41:30.363Z,161698.06
2022-08-28T22:43:58.068Z,161708.81
2022-08-28T22:46:25.683Z,161698.06
2022-08-28T22:48:53.233Z,161708.81
2022-08-28T22:51:20.750Z,161700.78
2022-08-28T22:53:48.749Z,161681.97
2022-08-28T22:56:17.448Z,161668.56
2022-08-28T22:58:45.183Z,161669.88
2022-08-28T23:01:19.692Z,161651.13
2022-08-28T23:03:47.389Z,161657.84
2022-08-28T23:06:15.635Z,161657.84
2022-08-28T23:08:43.002Z,161651.13
2022-08-28T23:11:11.245Z,161663.16
2022-08-28T23:13:39.278Z,161664.53
2022-08-28T23:16:07.124Z,161656.50
2022-08-28T23:18:51.642Z,161644.41
2022-08-28T23:21:23.844Z,161640.38
2022-08-28T23:23:55.053Z,161614.88
2022-08-28T23:26:22.847Z,161617.56
2022-08-28T23:28:50.241Z,161617.56
2022-08-28T23:31:17.986Z,161604.13
2022-08-28T23:33:45.913Z,161598.75
2022-08-28T23:36:13.331Z,161582.66
2022-08-28T23:38:43.096Z,161597.41
2022-08-28T23:41:11.755Z,161588.03
2022-08-28T23:43:41.079Z,161589.38
2022-08-28T23:46:09.892Z,161609.50
2022-08-28T23:48:41.431Z,161612.19
2022-08-28T23:51:10.044Z,161582.66
2022-08-28T23:53:40.139Z,161574.63
2022-08-28T23:56:07.979Z,161554.47
2022-08-28T23:58:35.624Z,161545.09
